Weather at Carey Field

Public forecast

Using degrees Fahrenheit for public forecast. Weather courtesy of forecast.io.

Closest aviation weather report (METAR) to Carey Field

Closest report is Ocean City Municipal Airport, 7.9 nm (14.7 km) SSE. Retrieved 2021/06/13 10:53 UTC (35 minutes ago):

KOXB 131053Z AUTO 11003KT 9SM BKN008 BKN013 19/18 A2992 RMK AO2 SLP131 T01940183

Closest aviation forecast (TAF) to Carey Field

Closest forecast is Salisbury Ocean City Wicomico Regional Airport, 17.6 nm (32.5 km) WSW. Retrieved 2021/06/13 06:58 UTC (5 hours ago):

TAF KSBY 130556Z 1306/1406 VRB02KT P6SM SCT040 FM131300 13005KT P6SM SCT040 FM131800 14007KT P6SM SCT050 FM140200 13004KT P6SM BKN100